createdAt,value
2016-06-25T00:00:02.170Z,100
2016-06-25T00:00:12.273Z,100
2016-06-25T00:00:22.187Z,100
2016-06-25T00:00:32.194Z,100
2016-06-25T00:00:41.018Z,100
2016-06-25T00:00:52.234Z,100
2016-06-25T00:01:02.223Z,100
2016-06-25T00:01:12.234Z,100
2016-06-25T00:01:22.227Z,100
2016-06-25T00:01:32.282Z,100
2016-06-25T00:01:42.279Z,100
2016-06-25T00:01:52.244Z,100
2016-06-25T00:02:02.266Z,100
2016-06-25T00:02:12.315Z,100
2016-06-25T00:02:21.075Z,100
2016-06-25T00:02:32.269Z,100
2016-06-25T00:02:42.291Z,100
2016-06-25T00:02:52.305Z,100
2016-06-25T00:03:02.294Z,100
2016-06-25T00:03:12.294Z,99.9
2016-06-25T00:03:22.331Z,99.8
2016-06-25T00:03:32.320Z,100
2016-06-25T00:03:41.123Z,100
2016-06-25T00:03:52.333Z,100
2016-06-25T00:04:01.139Z,99.7
2016-06-25T00:04:12.340Z,99.7
2016-06-25T00:04:22.346Z,99.7
2016-06-25T00:04:32.363Z,99.3
2016-06-25T00:04:42.366Z,100
2016-06-25T00:04:52.369Z,99.6
2016-06-25T00:05:02.390Z,99.4
2016-06-25T00:05:11.188Z,99.2
2016-06-25T00:05:22.385Z,99.4
2016-06-25T00:05:32.403Z,99.6
2016-06-25T00:05:42.405Z,99.5
2016-06-25T00:05:52.417Z,99.6
2016-06-25T00:06:02.420Z,99.6
2016-06-25T00:06:12.414Z,99.6
2016-06-25T00:06:22.445Z,99.5
2016-06-25T00:06:32.434Z,99.8
2016-06-25T00:06:42.438Z,99.6
2016-06-25T00:06:51.248Z,99.7
2016-06-25T00:07:02.462Z,99.8
2016-06-25T00:07:12.459Z,99.8
2016-06-25T00:07:22.473Z,99.7
2016-06-25T00:07:32.467Z,99.8
2016-06-25T00:07:42.479Z,99.7
2016-06-25T00:07:52.488Z,99.8
2016-06-25T00:08:02.501Z,99.9
2016-06-25T00:08:12.504Z,99.7
2016-06-25T00:08:22.512Z,99.4
2016-06-25T00:08:32.517Z,99.6
2016-06-25T00:08:42.523Z,99.6
2016-06-25T00:08:52.532Z,99.3
2016-06-25T00:09:02.538Z,99.7
2016-06-25T00:09:12.548Z,99.7
2016-06-25T00:09:22.556Z,99.9
2016-06-25T00:09:32.558Z,99.4
2016-06-25T00:09:42.565Z,99.4
2016-06-25T00:09:52.567Z,99
2016-06-25T00:10:02.588Z,99
2016-06-25T00:10:12.596Z,99.2
2016-06-25T00:10:22.594Z,99
2016-06-25T00:10:32.601Z,99.2
2016-06-25T00:10:42.627Z,98.7
2016-06-25T00:10:52.610Z,99.2
2016-06-25T00:11:02.614Z,98.5
2016-06-25T00:11:12.618Z,98.8
2016-06-25T00:11:22.641Z,99
2016-06-25T00:11:32.677Z,98.7
2016-06-25T00:11:42.639Z,98.9
2016-06-25T00:11:52.645Z,99
2016-06-25T00:12:02.654Z,98.7
2016-06-25T00:12:12.672Z,98.8
2016-06-25T00:12:22.691Z,99
2016-06-25T00:12:32.677Z,98.9
2016-06-25T00:12:42.689Z,99.2
2016-06-25T00:12:52.691Z,98.9
2016-06-25T00:13:02.709Z,98.9
2016-06-25T00:13:12.702Z,98.8
2016-06-25T00:13:22.731Z,98.9
2016-06-25T00:13:32.726Z,98.9
2016-06-25T00:13:42.728Z,99.1
2016-06-25T00:13:52.742Z,99
2016-06-25T00:14:02.737Z,99
2016-06-25T00:14:12.749Z,98.9
2016-06-25T00:14:22.751Z,98.8
2016-06-25T00:14:32.764Z,98.8
2016-06-25T00:14:42.781Z,99
2016-06-25T00:14:51.590Z,98.7
2016-06-25T00:15:02.791Z,98.7
2016-06-25T00:15:12.788Z,98.9
2016-06-25T00:15:21.608Z,98.8
2016-06-25T00:15:32.794Z,98.8
2016-06-25T00:15:42.805Z,99
2016-06-25T00:15:52.823Z,98.4
2016-06-25T00:16:02.828Z,98.7
2016-06-25T00:16:12.830Z,98.7
2016-06-25T00:16:22.838Z,99
2016-06-25T00:16:32.885Z,99
2016-06-25T00:16:42.879Z,98.8
2016-06-25T00:16:52.852Z,98.7
2016-06-25T00:17:01.686Z,98.7
2016-06-25T00:17:12.873Z,99
2016-06-25T00:17:22.888Z,98.7
2016-06-25T00:17:32.888Z,99.1
2016-06-25T00:17:41.709Z,98.9
2016-06-25T00:17:51.769Z,98.5
2016-06-25T00:18:02.937Z,98.5
2016-06-25T00:18:12.906Z,98.7
2016-06-25T00:18:22.920Z,98.9
2016-06-25T00:18:32.934Z,98.7
2016-06-25T00:18:42.948Z,98.8
2016-06-25T00:18:51.745Z,99
2016-06-25T00:19:02.944Z,98.7
2016-06-25T00:19:12.967Z,98.8
2016-06-25T00:19:22.982Z,98.8
2016-06-25T00:19:32.977Z,98.5
2016-06-25T00:19:42.965Z,98.8
2016-06-25T00:19:52.987Z,98.9
2016-06-25T00:20:02.995Z,98.9
2016-06-25T00:20:13.031Z,98.7
2016-06-25T00:20:23.023Z,99
2016-06-25T00:20:33.010Z,98.8
2016-06-25T00:20:43.011Z,98.6
2016-06-25T00:20:51.835Z,99
2016-06-25T00:21:01.852Z,98.8
2016-06-25T00:21:13.042Z,99.2
2016-06-25T00:21:23.052Z,99.4
2016-06-25T00:21:33.048Z,99
2016-06-25T00:21:43.045Z,99.1
2016-06-25T00:21:53.143Z,99.2
2016-06-25T00:22:03.075Z,99
2016-06-25T00:22:13.088Z,99.2
2016-06-25T00:22:23.108Z,99.4
2016-06-25T00:22:33.152Z,99.4
2016-06-25T00:22:41.935Z,99.2
2016-06-25T00:22:53.102Z,99.4
2016-06-25T00:23:03.184Z,99
2016-06-25T00:23:13.115Z,99.3
2016-06-25T00:23:21.920Z,99.3
2016-06-25T00:23:33.141Z,99.8
2016-06-25T00:23:43.138Z,99.6
2016-06-25T00:23:53.147Z,99.7
2016-06-25T00:24:03.145Z,99.7
2016-06-25T00:24:13.151Z,99.7
2016-06-25T00:24:23.173Z,100
2016-06-25T00:24:33.175Z,99.7
2016-06-25T00:24:43.187Z,99.5
2016-06-25T00:24:53.188Z,99.9
2016-06-25T00:25:02.085Z,100
2016-06-25T00:25:13.235Z,99.5
2016-06-25T00:25:23.196Z,99.5
2016-06-25T00:25:33.222Z,99.6
2016-06-25T00:25:43.221Z,99.7
2016-06-25T00:25:53.223Z,99.6
2016-06-25T00:26:03.225Z,99.8
2016-06-25T00:26:13.235Z,99.4
2016-06-25T00:26:23.246Z,99.5
2016-06-25T00:26:33.248Z,99.7
2016-06-25T00:26:43.251Z,99.8
2016-06-25T00:26:53.265Z,99.6
2016-06-25T00:27:02.090Z,99.6
2016-06-25T00:27:13.292Z,99.6
2016-06-25T00:27:23.292Z,99.6
2016-06-25T00:27:33.310Z,99.8
2016-06-25T00:27:43.294Z,99.8
2016-06-25T00:27:53.305Z,99.7
2016-06-25T00:28:03.314Z,98.8
2016-06-25T00:28:13.310Z,99.2
2016-06-25T00:28:23.413Z,99
2016-06-25T00:28:33.330Z,99.2
2016-06-25T00:28:43.345Z,99.3
2016-06-25T00:28:53.364Z,99.3
2016-06-25T00:29:03.389Z,99
2016-06-25T00:29:13.349Z,99.2
2016-06-25T00:29:23.376Z,99.2
2016-06-25T00:29:33.379Z,99.2
2016-06-25T00:29:43.395Z,99
2016-06-25T00:29:53.417Z,98.9
2016-06-25T00:30:03.448Z,99.3
2016-06-25T00:30:13.394Z,99.1
2016-06-25T00:30:23.434Z,99
2016-06-25T00:30:33.429Z,99.2
2016-06-25T00:30:43.485Z,99.4
2016-06-25T00:30:53.430Z,99.2
2016-06-25T00:31:03.454Z,99.2
2016-06-25T00:31:13.439Z,99.2
2016-06-25T00:31:22.258Z,98.9
2016-06-25T00:31:33.459Z,99
2016-06-25T00:31:43.462Z,99.2
2016-06-25T00:31:52.278Z,99.1
2016-06-25T00:32:02.318Z,99.2
2016-06-25T00:32:13.485Z,99.4
2016-06-25T00:32:23.497Z,99
2016-06-25T00:32:33.495Z,99.9
2016-06-25T00:32:43.534Z,99.8
2016-06-25T00:32:53.517Z,99.9
2016-06-25T00:33:03.531Z,99.2
2016-06-25T00:33:13.521Z,99.3
2016-06-25T00:33:23.530Z,99.2
2016-06-25T00:33:33.537Z,99.1
2016-06-25T00:33:43.556Z,99.2
2016-06-25T00:33:53.557Z,99.2
2016-06-25T00:34:03.548Z,99.2
2016-06-25T00:34:13.798Z,99.2
2016-06-25T00:34:23.575Z,99.6
2016-06-25T00:34:33.574Z,99.1
2016-06-25T00:34:43.590Z,99.1
2016-06-25T00:34:53.627Z,99.2
2016-06-25T00:35:03.611Z,99.1
2016-06-25T00:35:13.619Z,99
2016-06-25T00:35:22.416Z,99.2
2016-06-25T00:35:33.620Z,99.2
2016-06-25T00:35:43.632Z,99.2
2016-06-25T00:35:53.657Z,99.2
2016-06-25T00:36:02.452Z,98.9
2016-06-25T00:36:13.669Z,99
2016-06-25T00:36:23.663Z,99.2
2016-06-25T00:36:33.675Z,99.1
2016-06-25T00:36:43.669Z,98.9
2016-06-25T00:36:53.758Z,99.8
2016-06-25T00:37:03.680Z,99.6
2016-06-25T00:37:13.701Z,99.7
2016-06-25T00:37:23.699Z,99.9
2016-06-25T00:37:33.735Z,99.7
2016-06-25T00:37:42.528Z,99.7
2016-06-25T00:37:53.734Z,99.7
2016-06-25T00:38:03.729Z,99.9
2016-06-25T00:38:13.755Z,99.1
2016-06-25T00:38:22.541Z,100
2016-06-25T00:38:32.552Z,99.7
2016-06-25T00:38:43.781Z,99.9
2016-06-25T00:38:53.750Z,99.3
2016-06-25T00:39:02.576Z,99.2
2016-06-25T00:39:13.787Z,99.2
2016-06-25T00:39:23.774Z,99.1
2016-06-25T00:39:33.779Z,99
2016-06-25T00:39:43.791Z,99.2
2016-06-25T00:39:53.827Z,99
2016-06-25T00:40:02.607Z,99.2
2016-06-25T00:40:13.811Z,99.2
2016-06-25T00:40:23.822Z,99
2016-06-25T00:40:33.833Z,99.2
2016-06-25T00:40:43.824Z,99.9
2016-06-25T00:40:53.839Z,99.6
2016-06-25T00:41:03.847Z,99.8
2016-06-25T00:41:13.850Z,99.7
2016-06-25T00:41:23.866Z,99.7
2016-06-25T00:41:33.858Z,99.7
2016-06-25T00:41:42.675Z,99.7
2016-06-25T00:41:53.890Z,99.4
2016-06-25T00:42:03.887Z,99.4
2016-06-25T00:42:13.895Z,99.8
2016-06-25T00:42:22.728Z,99.6
2016-06-25T00:42:33.894Z,99.8
2016-06-25T00:42:43.912Z,99.7
2016-06-25T00:42:53.922Z,99.7
2016-06-25T00:43:04.021Z,99.6
2016-06-25T00:43:13.938Z,99.4
2016-06-25T00:43:23.945Z,99.8
2016-06-25T00:43:33.954Z,99.8
2016-06-25T00:43:44.008Z,99.6
2016-06-25T00:43:53.970Z,99.7
2016-06-25T00:44:02.767Z,99.5
2016-06-25T00:44:13.995Z,99.7
2016-06-25T00:44:24.037Z,99.5
2016-06-25T00:44:33.981Z,99.7
2016-06-25T00:44:43.989Z,99.8
2016-06-25T00:44:52.828Z,99.5
2016-06-25T00:45:04.054Z,99.8
2016-06-25T00:45:14.018Z,99.7
2016-06-25T00:45:24.019Z,99.4
2016-06-25T00:45:34.028Z,99.8
2016-06-25T00:45:44.046Z,99.6
2016-06-25T00:45:54.042Z,99.7
2016-06-25T00:46:04.046Z,99.6
2016-06-25T00:46:14.051Z,99.4
2016-06-25T00:46:24.075Z,99.8
2016-06-25T00:46:34.091Z,99.7
2016-06-25T00:46:44.069Z,99.5
2016-06-25T00:46:54.082Z,99.5
2016-06-25T00:47:04.102Z,99.7
2016-06-25T00:47:14.086Z,99.7
2016-06-25T00:47:24.106Z,99.7
2016-06-25T00:47:34.138Z,99.6
2016-06-25T00:47:44.137Z,99.6
2016-06-25T00:47:54.121Z,99.8
2016-06-25T00:48:04.125Z,99.7
2016-06-25T00:48:14.139Z,99.6
2016-06-25T00:48:24.153Z,99.5
2016-06-25T00:48:34.145Z,99.7
2016-06-25T00:48:44.159Z,99.9
2016-06-25T00:48:54.155Z,99.8
2016-06-25T00:49:04.565Z,100
2016-06-25T00:49:14.173Z,99.6
2016-06-25T00:49:24.182Z,99.4
2016-06-25T00:49:34.192Z,99.4
2016-06-25T00:49:44.199Z,99.4
2016-06-25T00:49:54.215Z,100
2016-06-25T00:50:04.211Z,100
2016-06-25T00:50:14.305Z,99.7
2016-06-25T00:50:24.221Z,99.2
2016-06-25T00:50:34.235Z,99.7
2016-06-25T00:50:44.246Z,99.7
2016-06-25T00:50:53.046Z,99.8
2016-06-25T00:51:04.256Z,99.2
2016-06-25T00:51:14.282Z,99.8
2016-06-25T00:51:24.275Z,99.7
2016-06-25T00:51:33.079Z,99.6
2016-06-25T00:51:44.283Z,99.9
2016-06-25T00:51:54.299Z,100
2016-06-25T00:52:04.288Z,100
2016-06-25T00:52:14.365Z,99.8
2016-06-25T00:52:24.311Z,99.6
2016-06-25T00:52:34.316Z,100
2016-06-25T00:52:44.333Z,100
2016-06-25T00:52:54.345Z,99.6
2016-06-25T00:53:04.329Z,100
2016-06-25T00:53:14.343Z,99.7
2016-06-25T00:53:24.369Z,99.4
2016-06-25T00:53:34.386Z,99.5
2016-06-25T00:53:44.354Z,100
2016-06-25T00:53:54.374Z,100
2016-06-25T00:54:04.372Z,99.6
2016-06-25T00:54:13.194Z,99.5
2016-06-25T00:54:24.402Z,99.2
2016-06-25T00:54:34.394Z,99.3
2016-06-25T00:54:44.403Z,99.4
2016-06-25T00:54:54.429Z,99.4
2016-06-25T00:55:03.229Z,100
2016-06-25T00:55:14.433Z,100
2016-06-25T00:55:24.423Z,100
2016-06-25T00:55:34.427Z,99.9
2016-06-25T00:55:44.445Z,99.9
2016-06-25T00:55:54.474Z,99.8
2016-06-25T00:56:04.450Z,100
2016-06-25T00:56:14.493Z,100
2016-06-25T00:56:24.466Z,100
2016-06-25T00:56:34.471Z,100
2016-06-25T00:56:44.481Z,100
2016-06-25T00:56:54.506Z,100
2016-06-25T00:57:04.510Z,100
2016-06-25T00:57:14.504Z,100
2016-06-25T00:57:24.522Z,100
2016-06-25T00:57:34.564Z,100
2016-06-25T00:57:44.517Z,100
2016-06-25T00:57:54.546Z,100
2016-06-25T00:58:04.542Z,100
2016-06-25T00:58:14.774Z,100
2016-06-25T00:58:24.551Z,100
2016-06-25T00:58:34.550Z,100
2016-06-25T00:58:43.370Z,100
2016-06-25T00:58:54.565Z,100
2016-06-25T00:59:04.594Z,100
2016-06-25T00:59:14.589Z,100
2016-06-25T00:59:23.403Z,100
2016-06-25T00:59:34.602Z,100
2016-06-25T00:59:44.642Z,100
2016-06-25T00:59:54.622Z,100
2016-06-25T01:00:04.619Z,100
2016-06-25T01:00:14.631Z,100
2016-06-25T01:00:23.450Z,100
2016-06-25T01:00:34.659Z,100
2016-06-25T01:00:44.655Z,100
2016-06-25T01:00:54.663Z,100
2016-06-25T01:01:04.665Z,100
2016-06-25T01:01:14.666Z,100
2016-06-25T01:01:24.670Z,100
2016-06-25T01:01:33.506Z,100
2016-06-25T01:01:44.691Z,100
2016-06-25T01:01:54.700Z,100
2016-06-25T01:02:04.700Z,100
2016-06-25T01:02:14.709Z,100
2016-06-25T01:02:24.726Z,100
2016-06-25T01:02:34.718Z,100
2016-06-25T01:02:44.718Z,100
2016-06-25T01:02:54.738Z,100
2016-06-25T01:03:03.547Z,100
2016-06-25T01:03:14.741Z,100
2016-06-25T01:03:24.758Z,100
2016-06-25T01:03:34.773Z,100
2016-06-25T01:03:44.767Z,100
2016-06-25T01:03:54.771Z,100
2016-06-25T01:04:04.777Z,100
2016-06-25T01:04:14.792Z,100
2016-06-25T01:04:24.799Z,100
2016-06-25T01:04:33.610Z,100
2016-06-25T01:04:44.812Z,100
2016-06-25T01:04:54.820Z,100
2016-06-25T01:05:04.837Z,100
2016-06-25T01:05:14.846Z,100
2016-06-25T01:05:24.838Z,100
2016-06-25T01:05:34.846Z,100
2016-06-25T01:05:44.858Z,100
2016-06-25T01:05:54.861Z,100
2016-06-25T01:06:04.874Z,100
2016-06-25T01:06:14.865Z,100
2016-06-25T01:06:24.881Z,100
2016-06-25T01:06:34.883Z,100
2016-06-25T01:06:44.994Z,100
2016-06-25T01:06:54.898Z,100
2016-06-25T01:07:04.904Z,100
2016-06-25T01:07:14.957Z,100
2016-06-25T01:07:23.737Z,100
2016-06-25T01:07:34.931Z,100
2016-06-25T01:07:44.938Z,100
2016-06-25T01:07:54.933Z,100
2016-06-25T01:08:03.769Z,100
2016-06-25T01:08:13.759Z,100
2016-06-25T01:08:24.977Z,100
2016-06-25T01:08:34.969Z,100
2016-06-25T01:08:44.985Z,100
2016-06-25T01:08:54.977Z,100
2016-06-25T01:09:04.979Z,100
2016-06-25T01:09:14.992Z,100
2016-06-25T01:09:24.993Z,100
2016-06-25T01:09:35.007Z,100
2016-06-25T01:09:43.827Z,100
2016-06-25T01:09:55.034Z,100
2016-06-25T01:10:05.028Z,100
2016-06-25T01:10:15.034Z,100
2016-06-25T01:10:25.047Z,100
2016-06-25T01:10:33.886Z,100
2016-06-25T01:10:45.073Z,100
2016-06-25T01:10:55.054Z,100
2016-06-25T01:11:05.067Z,100
2016-06-25T01:11:13.882Z,100
2016-06-25T01:11:25.092Z,100
2016-06-25T01:11:35.085Z,100
2016-06-25T01:11:45.096Z,100
2016-06-25T01:11:55.114Z,100
2016-06-25T01:12:05.099Z,100
2016-06-25T01:12:15.114Z,100
2016-06-25T01:12:25.137Z,100
2016-06-25T01:12:35.169Z,100
2016-06-25T01:12:45.130Z,100
2016-06-25T01:12:53.944Z,100
2016-06-25T01:13:03.945Z,100
2016-06-25T01:13:15.171Z,100
2016-06-25T01:13:25.168Z,100
2016-06-25T01:13:35.166Z,100
2016-06-25T01:13:45.188Z,100
2016-06-25T01:13:55.211Z,100
2016-06-25T01:14:05.186Z,100
2016-06-25T01:14:15.197Z,100
2016-06-25T01:14:25.204Z,100
2016-06-25T01:14:35.275Z,100
2016-06-25T01:14:45.211Z,100
2016-06-25T01:14:55.218Z,100
2016-06-25T01:15:05.231Z,100
2016-06-25T01:15:15.245Z,100
2016-06-25T01:15:25.241Z,100
2016-06-25T01:15:35.240Z,100
2016-06-25T01:15:45.285Z,100
2016-06-25T01:15:55.255Z,100
2016-06-25T01:16:05.264Z,100
2016-06-25T01:16:15.281Z,100
2016-06-25T01:16:24.095Z,100
2016-06-25T01:16:35.294Z,100
2016-06-25T01:16:45.316Z,100
2016-06-25T01:16:54.113Z,100
2016-06-25T01:17:05.309Z,100
2016-06-25T01:17:15.320Z,100
2016-06-25T01:17:25.344Z,100
2016-06-25T01:17:35.347Z,100
2016-06-25T01:17:45.331Z,100
2016-06-25T01:17:55.342Z,100
2016-06-25T01:18:05.347Z,100
2016-06-25T01:18:15.375Z,100
2016-06-25T01:18:25.358Z,100
2016-06-25T01:18:35.391Z,100
2016-06-25T01:18:44.177Z,100
2016-06-25T01:18:55.375Z,100
2016-06-25T01:19:05.609Z,100
2016-06-25T01:19:15.399Z,100
2016-06-25T01:19:25.403Z,100
2016-06-25T01:19:35.418Z,100
2016-06-25T01:19:45.643Z,100
2016-06-25T01:19:55.417Z,100
2016-06-25T01:20:05.424Z,100
2016-06-25T01:20:15.437Z,100
2016-06-25T01:20:25.524Z,100
2016-06-25T01:20:35.447Z,100
2016-06-25T01:20:45.454Z,100
2016-06-25T01:20:55.468Z,100
2016-06-25T01:21:05.484Z,100
2016-06-25T01:21:15.512Z,100
2016-06-25T01:21:25.518Z,100
2016-06-25T01:21:35.494Z,100
2016-06-25T01:21:45.551Z,100
2016-06-25T01:21:55.499Z,100
2016-06-25T01:22:05.517Z,100
2016-06-25T01:22:15.527Z,100
2016-06-25T01:22:25.535Z,100
2016-06-25T01:22:34.343Z,100
2016-06-25T01:22:45.552Z,100
2016-06-25T01:22:55.566Z,100
2016-06-25T01:23:04.371Z,100
2016-06-25T01:23:15.569Z,100
2016-06-25T01:23:25.593Z,100
2016-06-25T01:23:35.588Z,100
2016-06-25T01:23:45.571Z,100
2016-06-25T01:23:55.588Z,100
2016-06-25T01:24:05.612Z,100
2016-06-25T01:24:15.605Z,100
2016-06-25T01:24:25.599Z,100
2016-06-25T01:24:35.617Z,100
2016-06-25T01:24:45.634Z,100
2016-06-25T01:24:55.626Z,100
2016-06-25T01:25:05.621Z,100
2016-06-25T01:25:15.646Z,100
2016-06-25T01:25:24.460Z,100
2016-06-25T01:25:35.655Z,100
2016-06-25T01:25:45.671Z,100
2016-06-25T01:25:55.678Z,100
2016-06-25T01:26:05.706Z,100
2016-06-25T01:26:15.673Z,100
2016-06-25T01:26:25.698Z,100
2016-06-25T01:26:35.695Z,100
2016-06-25T01:26:45.739Z,100
2016-06-25T01:26:55.729Z,100
2016-06-25T01:27:05.720Z,100
2016-06-25T01:27:14.527Z,100
2016-06-25T01:27:25.726Z,100
2016-06-25T01:27:35.973Z,100
2016-06-25T01:27:45.745Z,100
2016-06-25T01:27:55.764Z,100
2016-06-25T01:28:05.750Z,100
2016-06-25T01:28:14.625Z,100
2016-06-25T01:28:25.783Z,100
2016-06-25T01:28:35.777Z,100
2016-06-25T01:28:45.780Z,100
2016-06-25T01:28:55.797Z,100
2016-06-25T01:29:04.594Z,100
2016-06-25T01:29:15.886Z,100
2016-06-25T01:29:25.815Z,100
2016-06-25T01:29:35.822Z,100
2016-06-25T01:29:45.819Z,100
2016-06-25T01:29:54.629Z,100
2016-06-25T01:30:05.827Z,100
2016-06-25T01:30:15.843Z,100
2016-06-25T01:30:25.882Z,100
2016-06-25T01:30:35.900Z,100
2016-06-25T01:30:45.854Z,100
2016-06-25T01:30:55.864Z,100
2016-06-25T01:31:05.880Z,100
2016-06-25T01:31:15.919Z,100
2016-06-25T01:31:25.888Z,100
2016-06-25T01:31:35.904Z,100
2016-06-25T01:31:45.905Z,100
2016-06-25T01:31:55.966Z,100
2016-06-25T01:32:05.909Z,100
2016-06-25T01:32:15.935Z,100
2016-06-25T01:32:25.933Z,100
2016-06-25T01:32:35.964Z,100
2016-06-25T01:32:45.965Z,100
2016-06-25T01:32:55.938Z,100
2016-06-25T01:33:05.947Z,100
2016-06-25T01:33:15.964Z,100
2016-06-25T01:33:25.983Z,100
2016-06-25T01:33:35.974Z,100
2016-06-25T01:33:45.988Z,100
2016-06-25T01:33:55.988Z,100
2016-06-25T01:34:06.028Z,100
2016-06-25T01:34:15.995Z,100
2016-06-25T01:34:24.815Z,100
2016-06-25T01:34:36.037Z,100
2016-06-25T01:34:46.037Z,100
2016-06-25T01:34:54.836Z,100
2016-06-25T01:35:06.047Z,100
2016-06-25T01:35:16.062Z,100
2016-06-25T01:35:26.058Z,100
2016-06-25T01:35:36.068Z,100
2016-06-25T01:35:46.167Z,100
2016-06-25T01:35:56.086Z,100
2016-06-25T01:36:06.076Z,100
2016-06-25T01:36:16.083Z,100
2016-06-25T01:36:26.159Z,100
2016-06-25T01:36:36.081Z,100
2016-06-25T01:36:44.904Z,100
2016-06-25T01:36:56.101Z,100
2016-06-25T01:37:06.152Z,100
2016-06-25T01:37:16.125Z,100
2016-06-25T01:37:26.123Z,100
2016-06-25T01:37:36.142Z,100
2016-06-25T01:37:46.149Z,100
2016-06-25T01:37:56.147Z,100
2016-06-25T01:38:06.155Z,100
2016-06-25T01:38:16.181Z,100
2016-06-25T01:38:26.171Z,100
2016-06-25T01:38:36.177Z,100
2016-06-25T01:38:46.175Z,100
2016-06-25T01:38:55.001Z,100
2016-06-25T01:39:06.202Z,100
2016-06-25T01:39:16.196Z,100
2016-06-25T01:39:26.215Z,100
2016-06-25T01:39:36.229Z,100
2016-06-25T01:39:46.243Z,100
2016-06-25T01:39:56.234Z,100
2016-06-25T01:40:06.235Z,100
2016-06-25T01:40:16.244Z,100
2016-06-25T01:40:26.261Z,100
2016-06-25T01:40:36.276Z,100
2016-06-25T01:40:45.087Z,100
2016-06-25T01:40:56.274Z,100
2016-06-25T01:41:06.279Z,100
2016-06-25T01:41:16.290Z,100
2016-06-25T01:41:26.300Z,100
2016-06-25T01:41:35.104Z,100
2016-06-25T01:41:46.301Z,100
2016-06-25T01:41:56.320Z,100
2016-06-25T01:42:06.306Z,100
2016-06-25T01:42:16.346Z,100
2016-06-25T01:42:26.355Z,100
2016-06-25T01:42:36.345Z,100
2016-06-25T01:42:46.339Z,100
2016-06-25T01:42:55.159Z,100
2016-06-25T01:43:06.369Z,100
2016-06-25T01:43:16.371Z,100
2016-06-25T01:43:26.388Z,100
2016-06-25T01:43:36.435Z,100
2016-06-25T01:43:45.187Z,100
2016-06-25T01:43:56.392Z,100
2016-06-25T01:44:06.407Z,100
2016-06-25T01:44:15.220Z,100
2016-06-25T01:44:26.410Z,100
2016-06-25T01:44:36.404Z,100
2016-06-25T01:44:46.424Z,100
2016-06-25T01:44:56.434Z,100
2016-06-25T01:45:06.442Z,100
2016-06-25T01:45:16.458Z,100
2016-06-25T01:45:26.462Z,100
2016-06-25T01:45:36.520Z,100
2016-06-25T01:45:46.462Z,100
2016-06-25T01:45:56.459Z,100
2016-06-25T01:46:06.476Z,100
2016-06-25T01:46:16.490Z,100
2016-06-25T01:46:26.492Z,100
2016-06-25T01:46:36.504Z,100
2016-06-25T01:46:46.493Z,100
2016-06-25T01:46:56.523Z,100
2016-06-25T01:47:06.524Z,100
2016-06-25T01:47:15.319Z,100
2016-06-25T01:47:26.522Z,100
2016-06-25T01:47:36.555Z,100
2016-06-25T01:47:46.591Z,100
2016-06-25T01:47:56.553Z,100
2016-06-25T01:48:05.363Z,100
2016-06-25T01:48:16.562Z,100
2016-06-25T01:48:26.578Z,100
2016-06-25T01:48:35.378Z,100
2016-06-25T01:48:46.582Z,100
2016-06-25T01:48:55.393Z,100
2016-06-25T01:49:06.602Z,100
2016-06-25T01:49:16.591Z,100
2016-06-25T01:49:25.413Z,100
2016-06-25T01:49:36.606Z,100
2016-06-25T01:49:46.625Z,100
2016-06-25T01:49:56.625Z,100
2016-06-25T01:50:06.630Z,100
2016-06-25T01:50:16.641Z,100
2016-06-25T01:50:26.657Z,100
2016-06-25T01:50:36.664Z,100
2016-06-25T01:50:46.657Z,100
2016-06-25T01:50:56.678Z,100
2016-06-25T01:51:06.685Z,100
2016-06-25T01:51:16.686Z,100
2016-06-25T01:51:26.695Z,100
2016-06-25T01:51:36.701Z,100
2016-06-25T01:51:46.744Z,100
2016-06-25T01:51:56.733Z,100
2016-06-25T01:52:06.711Z,100
2016-06-25T01:52:16.717Z,100
2016-06-25T01:52:26.735Z,100
2016-06-25T01:52:36.734Z,100
2016-06-25T01:52:46.757Z,100
2016-06-25T01:52:56.780Z,100
2016-06-25T01:53:06.787Z,100
2016-06-25T01:53:16.759Z,100
2016-06-25T01:53:26.771Z,100
2016-06-25T01:53:36.801Z,100
2016-06-25T01:53:45.588Z,100
2016-06-25T01:53:56.801Z,100
2016-06-25T01:54:06.801Z,100
2016-06-25T01:54:16.801Z,100
2016-06-25T01:54:26.821Z,100
2016-06-25T01:54:36.822Z,100
2016-06-25T01:54:46.837Z,100
2016-06-25T01:54:56.832Z,100
2016-06-25T01:55:05.645Z,100
2016-06-25T01:55:16.846Z,100
2016-06-25T01:55:26.866Z,100
2016-06-25T01:55:36.871Z,100
2016-06-25T01:55:46.862Z,100
2016-06-25T01:55:55.675Z,100
2016-06-25T01:56:06.871Z,100
2016-06-25T01:56:16.880Z,100
2016-06-25T01:56:26.890Z,100
2016-06-25T01:56:36.896Z,100
2016-06-25T01:56:45.771Z,100
2016-06-25T01:56:56.930Z,100
2016-06-25T01:57:05.729Z,100
2016-06-25T01:57:15.746Z,100
2016-06-25T01:57:26.949Z,100
2016-06-25T01:57:35.754Z,100
2016-06-25T01:57:46.969Z,100
2016-06-25T01:57:56.960Z,100
2016-06-25T01:58:06.954Z,100
2016-06-25T01:58:16.977Z,100
2016-06-25T01:58:26.970Z,100
2016-06-25T01:58:36.982Z,100
2016-06-25T01:58:45.818Z,100
2016-06-25T01:58:57.010Z,100
2016-06-25T01:59:07.017Z,100
2016-06-25T01:59:17.010Z,100
2016-06-25T01:59:25.825Z,100
2016-06-25T01:59:37.024Z,100
2016-06-25T01:59:47.030Z,100
2016-06-25T01:59:57.029Z,100
2016-06-25T02:00:07.073Z,100
2016-06-25T02:00:17.072Z,100
2016-06-25T02:00:27.076Z,100
2016-06-25T02:00:35.868Z,100
2016-06-25T02:00:47.109Z,100
2016-06-25T02:00:57.079Z,100
2016-06-25T02:01:07.087Z,100
2016-06-25T02:01:17.115Z,100
2016-06-25T02:01:27.118Z,100
2016-06-25T02:01:37.111Z,100
2016-06-25T02:01:47.101Z,100
2016-06-25T02:01:57.105Z,100
2016-06-25T02:02:07.127Z,100
2016-06-25T02:02:17.122Z,100
2016-06-25T02:02:25.932Z,100
2016-06-25T02:02:37.147Z,100
2016-06-25T02:02:47.181Z,100
2016-06-25T02:02:55.955Z,100
2016-06-25T02:03:07.190Z,100
2016-06-25T02:03:17.169Z,100
2016-06-25T02:03:25.980Z,100
2016-06-25T02:03:35.982Z,100
2016-06-25T02:03:47.189Z,100
2016-06-25T02:03:57.203Z,100
2016-06-25T02:04:07.210Z,100
2016-06-25T02:04:17.225Z,100
2016-06-25T02:04:27.219Z,100
2016-06-25T02:04:36.110Z,100
2016-06-25T02:04:47.258Z,100
2016-06-25T02:04:56.051Z,100
2016-06-25T02:05:06.051Z,100
2016-06-25T02:05:17.255Z,100
2016-06-25T02:05:27.275Z,100
2016-06-25T02:05:37.255Z,100
2016-06-25T02:05:47.274Z,100
2016-06-25T02:05:56.100Z,100
2016-06-25T02:06:07.290Z,100
2016-06-25T02:06:17.302Z,100
2016-06-25T02:06:27.304Z,100
2016-06-25T02:06:37.304Z,100
2016-06-25T02:06:47.318Z,100
2016-06-25T02:06:57.311Z,100
2016-06-25T02:07:07.334Z,100
2016-06-25T02:07:16.163Z,100
2016-06-25T02:07:27.345Z,100
2016-06-25T02:07:37.345Z,100
2016-06-25T02:07:47.345Z,100
2016-06-25T02:07:57.351Z,100
2016-06-25T02:08:07.360Z,100
2016-06-25T02:08:17.364Z,100
2016-06-25T02:08:27.375Z,100
2016-06-25T02:08:37.696Z,100
2016-06-25T02:08:47.424Z,100
2016-06-25T02:08:57.396Z,100
2016-06-25T02:09:07.411Z,100
2016-06-25T02:09:17.463Z,100
2016-06-25T02:09:27.434Z,100
2016-06-25T02:09:37.425Z,100
2016-06-25T02:09:47.426Z,100
2016-06-25T02:09:57.461Z,100
2016-06-25T02:10:07.451Z,100
2016-06-25T02:10:17.450Z,100
2016-06-25T02:10:27.449Z,100
2016-06-25T02:10:37.478Z,100
2016-06-25T02:10:47.475Z,100
2016-06-25T02:10:57.476Z,100
2016-06-25T02:11:07.516Z,100
2016-06-25T02:11:17.531Z,100
2016-06-25T02:11:27.499Z,100
2016-06-25T02:11:36.295Z,100
2016-06-25T02:11:47.513Z,100
2016-06-25T02:11:57.515Z,100
2016-06-25T02:12:07.527Z,100
2016-06-25T02:12:17.527Z,100
2016-06-25T02:12:27.546Z,100
2016-06-25T02:12:37.552Z,100
2016-06-25T02:12:47.545Z,100
2016-06-25T02:12:57.570Z,100
2016-06-25T02:13:07.572Z,100
2016-06-25T02:13:17.581Z,100
2016-06-25T02:13:27.574Z,100
2016-06-25T02:13:37.596Z,100
2016-06-25T02:13:47.587Z,100
2016-06-25T02:13:57.631Z,100
2016-06-25T02:14:07.617Z,100
2016-06-25T02:14:16.424Z,100
2016-06-25T02:14:27.841Z,100
2016-06-25T02:14:37.626Z,100
2016-06-25T02:14:47.653Z,100
2016-06-25T02:14:57.648Z,100
2016-06-25T02:15:07.894Z,100
2016-06-25T02:15:17.664Z,100
2016-06-25T02:15:27.672Z,100
2016-06-25T02:15:37.668Z,100
2016-06-25T02:15:47.706Z,100
2016-06-25T02:15:56.478Z,100
2016-06-25T02:16:07.686Z,100
2016-06-25T02:16:17.691Z,100